createdAt,value
2022-12-07T00:04:13.739Z,4.90
2022-12-07T00:11:19.713Z,4.90
2022-12-07T00:18:21.258Z,4.90
2022-12-07T00:25:21.611Z,4.90
2022-12-07T00:32:21.978Z,4.90
2022-12-07T00:39:22.317Z,4.90
2022-12-07T00:46:23.393Z,5.00
2022-12-07T00:53:23.787Z,5.00
2022-12-07T01:00:23.768Z,5.00
2022-12-07T01:07:24.175Z,5.00
2022-12-07T01:14:24.691Z,5.00
2022-12-07T01:21:27.693Z,5.00
2022-12-07T01:28:28.958Z,4.90
2022-12-07T01:35:29.458Z,4.90
2022-12-07T01:42:30.269Z,4.90
2022-12-07T01:49:47.770Z,4.90
2022-12-07T01:57:27.902Z,4.90
2022-12-07T02:04:28.625Z,4.90
2022-12-07T02:11:29.324Z,4.80
2022-12-07T02:19:06.022Z,4.90
2022-12-07T02:26:27.936Z,4.90
2022-12-07T02:33:36.869Z,4.90
2022-12-07T02:40:55.358Z,4.90
2022-12-07T02:47:59.800Z,4.90
2022-12-07T02:55:00.444Z,4.90
2022-12-07T03:02:25.126Z,4.90
2022-12-07T03:09:34.894Z,4.90
2022-12-07T03:16:43.706Z,4.90
2022-12-07T03:23:47.773Z,4.90
2022-12-07T03:30:53.854Z,4.90
2022-12-07T03:38:04.456Z,4.90
2022-12-07T03:45:07.179Z,4.90
2022-12-07T03:52:36.818Z,5.00
2022-12-07T03:59:37.988Z,4.90
2022-12-07T04:06:38.440Z,4.80
2022-12-07T04:14:00.244Z,4.80
2022-12-07T04:21:00.709Z,4.70
2022-12-07T04:28:01.283Z,4.70
2022-12-07T04:35:01.649Z,4.70
2022-12-07T04:42:03.185Z,4.70
2022-12-07T04:49:03.607Z,4.70
2022-12-07T04:56:04.356Z,4.70
2022-12-07T05:03:04.889Z,4.70
2022-12-07T05:10:06.440Z,4.60
2022-12-07T05:17:06.788Z,4.60
2022-12-07T05:24:08.948Z,4.60
2022-12-07T05:31:09.425Z,4.50
2022-12-07T05:38:13.772Z,4.50
2022-12-07T05:45:16.342Z,4.60
2022-12-07T05:52:17.936Z,4.60
2022-12-07T05:59:24.490Z,4.60
2022-12-07T06:06:28.946Z,4.50
2022-12-07T06:13:30.911Z,4.50
2022-12-07T06:20:32.315Z,4.40
2022-12-07T06:27:33.743Z,4.40
2022-12-07T06:34:35.380Z,4.30
2022-12-07T06:41:41.413Z,4.30
2022-12-07T06:48:46.216Z,4.30
2022-12-07T06:55:47.299Z,4.30
2022-12-07T07:02:49.090Z,4.30
2022-12-07T07:09:50.908Z,4.30
2022-12-07T07:16:52.287Z,4.20
2022-12-07T07:23:53.019Z,4.20
2022-12-07T07:30:53.179Z,4.30
2022-12-07T07:37:53.926Z,4.40
2022-12-07T07:44:54.436Z,4.40
2022-12-07T07:51:55.097Z,4.50
2022-12-07T07:58:56.173Z,4.50
2022-12-07T08:05:56.320Z,4.50
2022-12-07T08:13:11.623Z,4.50
2022-12-07T08:20:11.793Z,4.50
2022-12-07T08:27:12.267Z,4.60
2022-12-07T08:34:13.637Z,4.50
2022-12-07T08:41:14.078Z,4.50
2022-12-07T08:48:15.389Z,4.60
2022-12-07T08:55:15.744Z,4.60
2022-12-07T09:02:16.219Z,4.70
2022-12-07T09:09:17.166Z,4.80
2022-12-07T09:16:17.452Z,4.80
2022-12-07T09:23:17.746Z,4.90
2022-12-07T09:30:18.196Z,5.00
2022-12-07T09:37:18.571Z,5.10
2022-12-07T09:44:25.285Z,5.00
2022-12-07T09:51:26.184Z,5.00
2022-12-07T09:58:28.783Z,5.10
2022-12-07T10:05:33.366Z,5.20
2022-12-07T10:12:55.445Z,5.40
2022-12-07T10:20:13.085Z,5.40
2022-12-07T10:27:26.685Z,5.50
2022-12-07T10:34:36.486Z,5.50
2022-12-07T10:42:04.389Z,5.60
2022-12-07T10:49:20.026Z,5.60
2022-12-07T10:56:42.849Z,5.70
2022-12-07T11:04:21.117Z,5.80
2022-12-07T11:11:34.620Z,5.90
2022-12-07T11:18:53.681Z,5.90
2022-12-07T11:26:05.461Z,5.90
2022-12-07T11:33:39.733Z,5.90
2022-12-07T11:40:42.896Z,5.90
2022-12-07T11:48:09.233Z,5.90
2022-12-07T11:55:25.045Z,6.00
2022-12-07T12:02:45.878Z,6.10
2022-12-07T12:09:57.762Z,6.10
2022-12-07T12:17:22.992Z,6.30
2022-12-07T12:24:37.260Z,6.30
2022-12-07T12:31:42.383Z,6.30
2022-12-07T12:38:50.406Z,6.20
2022-12-07T12:45:51.025Z,6.30
2022-12-07T12:53:20.392Z,6.30
2022-12-07T13:00:21.782Z,6.30
2022-12-07T13:07:53.886Z,6.50
2022-12-07T13:14:56.150Z,6.70
2022-12-07T13:21:56.522Z,6.80
2022-12-07T13:29:15.608Z,6.90
2022-12-07T13:36:26.619Z,6.70
2022-12-07T13:43:26.757Z,6.60
2022-12-07T13:50:32.185Z,6.40
2022-12-07T13:57:35.906Z,6.30
2022-12-07T14:04:38.240Z,6.20
2022-12-07T14:11:38.800Z,6.10
2022-12-07T14:18:42.210Z,6.00
2022-12-07T14:25:51.849Z,6.00
2022-12-07T14:32:55.967Z,6.10
2022-12-07T14:39:57.024Z,6.10
2022-12-07T14:54:19.656Z,6.10
2022-12-07T15:01:20.250Z,6.00
2022-12-07T15:08:20.718Z,6.00
2022-12-07T15:15:21.145Z,6.00
2022-12-07T15:22:21.588Z,6.00
2022-12-07T15:29:23.526Z,6.00
2022-12-07T15:36:27.133Z,5.90
2022-12-07T15:43:45.839Z,5.80
2022-12-07T15:50:46.071Z,5.60
2022-12-07T15:57:46.547Z,5.40
2022-12-07T16:04:47.083Z,5.30
2022-12-07T16:11:47.293Z,5.20
2022-12-07T16:18:47.919Z,5.20
2022-12-07T16:25:48.129Z,5.10
2022-12-07T16:32:48.548Z,5.10
2022-12-07T16:39:49.211Z,5.10
2022-12-07T16:46:49.652Z,5.10
2022-12-07T16:53:53.053Z,5.10
2022-12-07T17:00:53.616Z,5.00
2022-12-07T17:07:55.055Z,5.00
2022-12-07T17:15:14.085Z,5.00
2022-12-07T17:22:14.646Z,5.00
2022-12-07T17:29:17.170Z,5.00
2022-12-07T17:36:20.663Z,5.00
2022-12-07T17:43:20.992Z,5.00
2022-12-07T17:50:41.436Z,5.00
2022-12-07T17:57:42.359Z,5.00
2022-12-07T18:04:43.025Z,5.00
2022-12-07T18:11:43.337Z,5.00
2022-12-07T18:18:49.140Z,5.00
2022-12-07T18:25:52.740Z,5.00
2022-12-07T18:32:53.264Z,5.00
2022-12-07T18:39:55.498Z,5.10
2022-12-07T18:46:55.865Z,5.10
2022-12-07T18:53:56.752Z,5.20
2022-12-07T19:00:57.506Z,5.10
2022-12-07T19:07:57.766Z,5.10
2022-12-07T19:14:58.251Z,5.10
2022-12-07T19:21:58.648Z,5.10
2022-12-07T19:28:59.026Z,5.00
2022-12-07T19:35:59.358Z,5.00
2022-12-07T19:42:59.710Z,5.00
2022-12-07T19:50:00.103Z,4.90
2022-12-07T19:57:00.549Z,4.90
2022-12-07T20:04:00.995Z,4.90
2022-12-07T20:11:21.217Z,4.90
2022-12-07T20:18:21.503Z,4.80
2022-12-07T20:25:22.085Z,4.80
2022-12-07T20:32:22.653Z,4.70
2022-12-07T20:39:24.052Z,4.50
2022-12-07T20:46:24.610Z,4.50
2022-12-07T20:53:24.986Z,4.50
2022-12-07T21:00:25.498Z,4.40
2022-12-07T21:07:25.967Z,4.20
2022-12-07T21:14:26.487Z,4.40
2022-12-07T21:21:26.822Z,4.40
2022-12-07T21:28:27.537Z,4.40
2022-12-07T21:35:27.750Z,4.40
2022-12-07T21:42:28.135Z,4.40
2022-12-07T21:49:28.524Z,4.30
2022-12-07T21:56:32.228Z,4.30
2022-12-07T22:03:32.325Z,4.30
2022-12-07T22:10:32.943Z,4.30
2022-12-07T22:17:34.065Z,4.30
2022-12-07T22:24:34.636Z,4.30
2022-12-07T22:31:35.566Z,4.30
2022-12-07T22:38:37.173Z,4.30
2022-12-07T22:45:39.444Z,4.20
2022-12-07T22:52:39.725Z,4.20
2022-12-07T22:59:40.398Z,4.20
2022-12-07T23:06:40.727Z,4.20
2022-12-07T23:13:41.101Z,4.20
2022-12-07T23:20:41.592Z,4.20
2022-12-07T23:27:41.944Z,4.20
2022-12-07T23:34:43.767Z,4.20
2022-12-07T23:41:44.064Z,4.20
2022-12-07T23:48:45.236Z,4.20
2022-12-07T23:55:46.317Z,4.20
